sensor_id;sensor_type;location;lat;lon;timestamp;pressure;altitude;pressure_sealevel;temperature
11926;BMP180;6022;48.768;18.608;2022-08-25T00:00:48;98562.81;;;20.26
11926;BMP180;6022;48.768;18.608;2022-08-25T00:03:23;98565.53;;;20.24
11926;BMP180;6022;48.768;18.608;2022-08-25T00:05:52;98561.50;;;20.22
11926;BMP180;6022;48.768;18.608;2022-08-25T00:08:19;98557.44;;;20.19
11926;BMP180;6022;48.768;18.608;2022-08-25T00:10:47;98556.50;;;20.20
11926;BMP180;6022;48.768;18.608;2022-08-25T00:13:29;98553.78;;;20.22
11926;BMP180;6022;48.768;18.608;2022-08-25T00:15:58;98550.84;;;20.17
11926;BMP180;6022;48.768;18.608;2022-08-25T00:18:26;98553.75;;;20.14
11926;BMP180;6022;48.768;18.608;2022-08-25T00:20:53;98553.25;;;20.10
11926;BMP180;6022;48.768;18.608;2022-08-25T00:23:23;98544.34;;;20.05
11926;BMP180;6022;48.768;18.608;2022-08-25T00:25:51;98550.44;;;20.04
11926;BMP180;6022;48.768;18.608;2022-08-25T00:28:19;98540.28;;;20.03
11926;BMP180;6022;48.768;18.608;2022-08-25T00:30:47;98548.19;;;20.01
11926;BMP180;6022;48.768;18.608;2022-08-25T00:33:16;98545.44;;;20.03
11926;BMP180;6022;48.768;18.608;2022-08-25T00:35:44;98543.34;;;19.98
11926;BMP180;6022;48.768;18.608;2022-08-25T00:38:12;98549.28;;;19.99
11926;BMP180;6022;48.768;18.608;2022-08-25T00:40:42;98542.06;;;20.02
11926;BMP180;6022;48.768;18.608;2022-08-25T00:43:10;98544.97;;;19.99
11926;BMP180;6022;48.768;18.608;2022-08-25T00:45:38;98543.66;;;19.95
11926;BMP180;6022;48.768;18.608;2022-08-25T00:48:07;98539.44;;;19.94
11926;BMP180;6022;48.768;18.608;2022-08-25T00:50:35;98547.47;;;19.91
11926;BMP180;6022;48.768;18.608;2022-08-25T00:53:06;98544.22;;;19.89
11926;BMP180;6022;48.768;18.608;2022-08-25T00:55:37;98547.13;;;19.86
11926;BMP180;6022;48.768;18.608;2022-08-25T00:58:15;98542.78;;;19.87
11926;BMP180;6022;48.768;18.608;2022-08-25T01:00:48;98551.09;;;19.81
11926;BMP180;6022;48.768;18.608;2022-08-25T01:03:21;98548.97;;;19.76
11926;BMP180;6022;48.768;18.608;2022-08-25T01:06:05;98550.84;;;19.74
11926;BMP180;6022;48.768;18.608;2022-08-25T01:08:34;98550.84;;;19.74
11926;BMP180;6022;48.768;18.608;2022-08-25T01:11:04;98547.94;;;19.69
11926;BMP180;6022;48.768;18.608;2022-08-25T01:16:07;98537.94;;;19.67
11926;BMP180;6022;48.768;18.608;2022-08-25T01:18:56;98537.94;;;19.67
11926;BMP180;6022;48.768;18.608;2022-08-25T01:21:26;98544.06;;;19.66
11926;BMP180;6022;48.768;18.608;2022-08-25T01:23:55;98540.38;;;19.68
11926;BMP180;6022;48.768;18.608;2022-08-25T01:26:31;98537.13;;;19.66
11926;BMP180;6022;48.768;18.608;2022-08-25T01:29:01;98542.94;;;19.68
11926;BMP180;6022;48.768;18.608;2022-08-25T01:31:53;98536.34;;;19.66
11926;BMP180;6022;48.768;18.608;2022-08-25T01:34:27;98542.28;;;19.66
11926;BMP180;6022;48.768;18.608;2022-08-25T01:36:58;98532.28;;;19.63
11926;BMP180;6022;48.768;18.608;2022-08-25T01:39:28;98530.00;;;19.60
11926;BMP180;6022;48.768;18.608;2022-08-25T01:42:13;98539.19;;;19.63
11926;BMP180;6022;48.768;18.608;2022-08-25T01:44:46;98534.38;;;19.60
11926;BMP180;6022;48.768;18.608;2022-08-25T01:47:15;98534.66;;;19.57
11926;BMP180;6022;48.768;18.608;2022-08-25T01:49:43;98534.66;;;19.57
11926;BMP180;6022;48.768;18.608;2022-08-25T01:52:28;98535.91;;;19.53
11926;BMP180;6022;48.768;18.608;2022-08-25T01:54:56;98541.84;;;19.53
11926;BMP180;6022;48.768;18.608;2022-08-25T01:57:24;98538.63;;;19.51
11926;BMP180;6022;48.768;18.608;2022-08-25T01:59:51;98529.44;;;19.49
11926;BMP180;6022;48.768;18.608;2022-08-25T02:02:20;98535.53;;;19.48
11926;BMP180;6022;48.768;18.608;2022-08-25T02:04:48;98537.44;;;19.46
11926;BMP180;6022;48.768;18.608;2022-08-25T02:07:17;98536.78;;;19.44
11926;BMP180;6022;48.768;18.608;2022-08-25T02:09:45;98541.28;;;19.42
11926;BMP180;6022;48.768;18.608;2022-08-25T02:12:12;98538.72;;;19.42
11926;BMP180;6022;48.768;18.608;2022-08-25T02:14:40;98545.13;;;19.38
11926;BMP180;6022;48.768;18.608;2022-08-25T02:17:09;98535.41;;;19.32
11926;BMP180;6022;48.768;18.608;2022-08-25T02:19:36;98537.69;;;19.35
11926;BMP180;6022;48.768;18.608;2022-08-25T02:22:04;98540.09;;;19.36
11926;BMP180;6022;48.768;18.608;2022-08-25T02:24:32;98538.34;;;19.37
11926;BMP180;6022;48.768;18.608;2022-08-25T02:27:01;98539.59;;;19.33
11926;BMP180;6022;48.768;18.608;2022-08-25T02:29:30;98539.59;;;19.33
11926;BMP180;6022;48.768;18.608;2022-08-25T02:31:57;98538.13;;;19.31
11926;BMP180;6022;48.768;18.608;2022-08-25T02:34:25;98539.25;;;19.28
11926;BMP180;6022;48.768;18.608;2022-08-25T02:36:53;98532.59;;;19.26
11926;BMP180;6022;48.768;18.608;2022-08-25T02:39:21;98537.94;;;19.24
11926;BMP180;6022;48.768;18.608;2022-08-25T02:41:49;98538.88;;;19.23
11926;BMP180;6022;48.768;18.608;2022-08-25T02:44:18;98528.19;;;19.18
11926;BMP180;6022;48.768;18.608;2022-08-25T02:46:46;98531.09;;;19.15
11926;BMP180;6022;48.768;18.608;2022-08-25T02:49:13;98529.16;;;19.17
11926;BMP180;6022;48.768;18.608;2022-08-25T02:51:41;98532.84;;;19.15
11926;BMP180;6022;48.768;18.608;2022-08-25T02:54:09;98527.34;;;19.10
11926;BMP180;6022;48.768;18.608;2022-08-25T02:56:36;98525.56;;;19.10
11926;BMP180;6022;48.768;18.608;2022-08-25T02:59:04;98527.84;;;19.13
11926;BMP180;6022;48.768;18.608;2022-08-25T03:01:32;98522.72;;;19.13
11926;BMP180;6022;48.768;18.608;2022-08-25T03:04:01;98526.53;;;19.09
11926;BMP180;6022;48.768;18.608;2022-08-25T03:06:29;98528.78;;;19.12
11926;BMP180;6022;48.768;18.608;2022-08-25T03:08:57;98523.13;;;19.09
11926;BMP180;6022;48.768;18.608;2022-08-25T03:11:25;98525.56;;;19.10
11926;BMP180;6022;48.768;18.608;2022-08-25T03:13:53;98531.69;;;19.09
11926;BMP180;6022;48.768;18.608;2022-08-25T03:16:21;98523.31;;;19.07
11926;BMP180;6022;48.768;18.608;2022-08-25T03:18:54;98524.09;;;19.08
11926;BMP180;6022;48.768;18.608;2022-08-25T03:21:23;98527.09;;;19.03
11926;BMP180;6022;48.768;18.608;2022-08-25T03:23:51;98524.25;;;19.06
11926;BMP180;6022;48.768;18.608;2022-08-25T03:26:19;98524.38;;;19.05
11926;BMP180;6022;48.768;18.608;2022-08-25T03:29:06;98532.53;;;19.00
11926;BMP180;6022;48.768;18.608;2022-08-25T03:31:34;98526.75;;;18.98
11926;BMP180;6022;48.768;18.608;2022-08-25T03:34:03;98544.28;;;19.03
11926;BMP180;6022;48.768;18.608;2022-08-25T03:36:32;98528.06;;;19.02
11926;BMP180;6022;48.768;18.608;2022-08-25T03:38:59;98530.63;;;19.02
11926;BMP180;6022;48.768;18.608;2022-08-25T03:41:29;98528.34;;;18.99
11926;BMP180;6022;48.768;18.608;2022-08-25T03:43:59;98537.38;;;19.03
11926;BMP180;6022;48.768;18.608;2022-08-25T03:46:32;98533.34;;;19.01
11926;BMP180;6022;48.768;18.608;2022-08-25T03:49:02;98529.00;;;19.01
11926;BMP180;6022;48.768;18.608;2022-08-25T03:51:35;98534.97;;;19.02
11926;BMP180;6022;48.768;18.608;2022-08-25T03:54:04;98524.69;;;19.02
11926;BMP180;6022;48.768;18.608;2022-08-25T03:56:32;98523.72;;;19.03
11926;BMP180;6022;48.768;18.608;2022-08-25T03:59:00;98530.84;;;19.09
11926;BMP180;6022;48.768;18.608;2022-08-25T04:01:28;98524.75;;;19.10
11926;BMP180;6022;48.768;18.608;2022-08-25T04:03:56;98528.00;;;19.12
11926;BMP180;6022;48.768;18.608;2022-08-25T04:06:24;98519.69;;;19.18
11926;BMP180;6022;48.768;18.608;2022-08-25T04:08:51;98520.19;;;19.21
11926;BMP180;6022;48.768;18.608;2022-08-25T04:11:22;98524.75;;;19.27
11926;BMP180;6022;48.768;18.608;2022-08-25T04:13:51;98515.25;;;19.28
11926;BMP180;6022;48.768;18.608;2022-08-25T04:16:23;98513.25;;;19.39
11926;BMP180;6022;48.768;18.608;2022-08-25T04:18:53;98512.38;;;19.48
11926;BMP180;6022;48.768;18.608;2022-08-25T04:21:23;98516.03;;;19.63
11926;BMP180;6022;48.768;18.608;2022-08-25T04:23:54;98516.44;;;19.75
11926;BMP180;6022;48.768;18.608;2022-08-25T04:26:33;98515.91;;;19.89
11926;BMP180;6022;48.768;18.608;2022-08-25T04:29:07;98519.25;;;20.07
11926;BMP180;6022;48.768;18.608;2022-08-25T04:31:40;98518.34;;;20.16
11926;BMP180;6022;48.768;18.608;2022-08-25T04:34:11;98512.44;;;20.31
11926;BMP180;6022;48.768;18.608;2022-08-25T04:36:56;98513.22;;;20.24
11926;BMP180;6022;48.768;18.608;2022-08-25T04:39:24;98511.91;;;20.20
11926;BMP180;6022;48.768;18.608;2022-08-25T04:41:52;98516.28;;;20.27
11926;BMP180;6022;48.768;18.608;2022-08-25T04:44:20;98507.59;;;20.36
11926;BMP180;6022;48.768;18.608;2022-08-25T04:46:47;98513.63;;;20.52
11926;BMP180;6022;48.768;18.608;2022-08-25T04:49:16;98505.03;;;20.69
11926;BMP180;6022;48.768;18.608;2022-08-25T04:51:45;98500.72;;;20.78
11926;BMP180;6022;48.768;18.608;2022-08-25T04:54:18;98498.97;;;21.25
11926;BMP180;6022;48.768;18.608;2022-08-25T04:56:50;98500.34;;;22.23
11926;BMP180;6022;48.768;18.608;2022-08-25T04:59:25;98499.56;;;23.13
11926;BMP180;6022;48.768;18.608;2022-08-25T05:01:59;98498.94;;;23.69
11926;BMP180;6022;48.768;18.608;2022-08-25T05:04:34;98492.53;;;24.23
11926;BMP180;6022;48.768;18.608;2022-08-25T05:07:02;98489.78;;;24.38
11926;BMP180;6022;48.768;18.608;2022-08-25T05:09:30;98484.94;;;24.85
11926;BMP180;6022;48.768;18.608;2022-08-25T05:12:00;98494.38;;;25.27
11926;BMP180;6022;48.768;18.608;2022-08-25T05:14:29;98484.31;;;25.93
11926;BMP180;6022;48.768;18.608;2022-08-25T05:16:58;98483.91;;;26.23
11926;BMP180;6022;48.768;18.608;2022-08-25T05:19:26;98475.31;;;26.75
11926;BMP180;6022;48.768;18.608;2022-08-25T05:21:54;98487.00;;;26.92
11926;BMP180;6022;48.768;18.608;2022-08-25T05:24:24;98484.59;;;26.97
11926;BMP180;6022;48.768;18.608;2022-08-25T05:26:52;98486.09;;;27.44
11926;BMP180;6022;48.768;18.608;2022-08-25T05:29:19;98490.06;;;27.79
11926;BMP180;6022;48.768;18.608;2022-08-25T05:31:50;98491.47;;;28.63
11926;BMP180;6022;48.768;18.608;2022-08-25T05:34:18;98486.28;;;29.31
11926;BMP180;6022;48.768;18.608;2022-08-25T05:36:47;98485.38;;;29.92
11926;BMP180;6022;48.768;18.608;2022-08-25T05:39:15;98476.78;;;29.85
11926;BMP180;6022;48.768;18.608;2022-08-25T05:41:42;98488.06;;;30.03
11926;BMP180;6022;48.768;18.608;2022-08-25T05:44:10;98480.19;;;31.32
11926;BMP180;6022;48.768;18.608;2022-08-25T05:46:39;98488.59;;;31.86
11926;BMP180;6022;48.768;18.608;2022-08-25T05:49:06;98480.00;;;31.57
11926;BMP180;6022;48.768;18.608;2022-08-25T05:51:34;98482.06;;;31.55
11926;BMP180;6022;48.768;18.608;2022-08-25T05:54:02;98479.84;;;32.54
11926;BMP180;6022;48.768;18.608;2022-08-25T05:56:30;98479.59;;;32.94
11926;BMP180;6022;48.768;18.608;2022-08-25T05:58:58;98477.88;;;32.61
11926;BMP180;6022;48.768;18.608;2022-08-25T06:01:27;98472.41;;;33.66
11926;BMP180;6022;48.768;18.608;2022-08-25T06:04:17;98472.63;;;33.97
11926;BMP180;6022;48.768;18.608;2022-08-25T06:06:46;98477.53;;;34.74
11926;BMP180;6022;48.768;18.608;2022-08-25T06:09:15;98472.66;;;34.61
11926;BMP180;6022;48.768;18.608;2022-08-25T06:11:42;98473.50;;;34.88
11926;BMP180;6022;48.768;18.608;2022-08-25T06:14:11;98472.66;;;34.61
11926;BMP180;6022;48.768;18.608;2022-08-25T06:16:38;98475.34;;;35.13
11926;BMP180;6022;48.768;18.608;2022-08-25T06:19:10;98472.41;;;34.41
11926;BMP180;6022;48.768;18.608;2022-08-25T06:21:40;98468.97;;;33.50
11926;BMP180;6022;48.768;18.608;2022-08-25T06:24:09;98474.00;;;33.07
11926;BMP180;6022;48.768;18.608;2022-08-25T06:26:41;98471.41;;;33.23
11926;BMP180;6022;48.768;18.608;2022-08-25T06:29:10;98479.69;;;33.16
11926;BMP180;6022;48.768;18.608;2022-08-25T06:31:40;98464.56;;;33.22
11926;BMP180;6022;48.768;18.608;2022-08-25T06:34:09;98472.06;;;33.95
11926;BMP180;6022;48.768;18.608;2022-08-25T06:36:38;98471.31;;;34.37
11926;BMP180;6022;48.768;18.608;2022-08-25T06:39:06;98474.44;;;34.34
11926;BMP180;6022;48.768;18.608;2022-08-25T06:41:37;98468.63;;;34.33
11926;BMP180;6022;48.768;18.608;2022-08-25T06:44:05;98480.47;;;34.14
11926;BMP180;6022;48.768;18.608;2022-08-25T06:46:33;98477.72;;;34.68
11926;BMP180;6022;48.768;18.608;2022-08-25T06:49:05;98482.53;;;35.23
11926;BMP180;6022;48.768;18.608;2022-08-25T06:51:33;98483.38;;;35.95
11926;BMP180;6022;48.768;18.608;2022-08-25T06:54:07;98479.66;;;36.42
11926;BMP180;6022;48.768;18.608;2022-08-25T06:56:37;98486.47;;;36.99
11926;BMP180;6022;48.768;18.608;2022-08-25T06:59:07;98480.06;;;36.75
11926;BMP180;6022;48.768;18.608;2022-08-25T07:01:35;98485.66;;;36.99
11926;BMP180;6022;48.768;18.608;2022-08-25T07:04:05;98481.25;;;37.29
11926;BMP180;6022;48.768;18.608;2022-08-25T07:06:39;98485.97;;;37.96
11926;BMP180;6022;48.768;18.608;2022-08-25T07:09:09;98477.00;;;37.67
11926;BMP180;6022;48.768;18.608;2022-08-25T07:11:40;98486.47;;;38.22
11926;BMP180;6022;48.768;18.608;2022-08-25T07:14:12;98481.06;;;38.47
11926;BMP180;6022;48.768;18.608;2022-08-25T07:16:41;98477.25;;;37.95
11926;BMP180;6022;48.768;18.608;2022-08-25T07:19:18;98482.53;;;37.85
11926;BMP180;6022;48.768;18.608;2022-08-25T07:21:51;98474.34;;;37.67
11926;BMP180;6022;48.768;18.608;2022-08-25T07:24:19;98472.72;;;37.91
11926;BMP180;6022;48.768;18.608;2022-08-25T07:26:47;98472.94;;;38.19
11926;BMP180;6022;48.768;18.608;2022-08-25T07:29:19;98467.63;;;38.82
11926;BMP180;6022;48.768;18.608;2022-08-25T07:32:00;98470.59;;;39.13
11926;BMP180;6022;48.768;18.608;2022-08-25T07:34:29;98476.13;;;40.11
11926;BMP180;6022;48.768;18.608;2022-08-25T07:37:20;98478.34;;;40.27
11926;BMP180;6022;48.768;18.608;2022-08-25T07:40:21;98481.22;;;40.31
11926;BMP180;6022;48.768;18.608;2022-08-25T07:42:53;98474.75;;;39.62
11926;BMP180;6022;48.768;18.608;2022-08-25T07:45:27;98472.13;;;39.57
11926;BMP180;6022;48.768;18.608;2022-08-25T07:48:09;98468.28;;;39.07
11926;BMP180;6022;48.768;18.608;2022-08-25T07:50:45;98468.47;;;40.28
11926;BMP180;6022;48.768;18.608;2022-08-25T07:53:17;98477.91;;;40.44
11926;BMP180;6022;48.768;18.608;2022-08-25T07:55:51;98476.19;;;40.53
11926;BMP180;6022;48.768;18.608;2022-08-25T07:58:21;98474.97;;;40.82
11926;BMP180;6022;48.768;18.608;2022-08-25T08:00:49;98466.31;;;40.12
11926;BMP180;6022;48.768;18.608;2022-08-25T08:03:20;98467.88;;;39.84
11926;BMP180;6022;48.768;18.608;2022-08-25T08:06:13;98462.19;;;39.73
11926;BMP180;6022;48.768;18.608;2022-08-25T08:08:46;98460.00;;;40.03
11926;BMP180;6022;48.768;18.608;2022-08-25T08:11:26;98468.38;;;40.38
11926;BMP180;6022;48.768;18.608;2022-08-25T08:13:57;98465.63;;;39.40
11926;BMP180;6022;48.768;18.608;2022-08-25T08:16:28;98468.53;;;40.46
11926;BMP180;6022;48.768;18.608;2022-08-25T08:18:57;98462.81;;;40.34
11926;BMP180;6022;48.768;18.608;2022-08-25T08:21:30;98457.50;;;40.34
11926;BMP180;6022;48.768;18.608;2022-08-25T08:23:59;98458.34;;;39.22
11926;BMP180;6022;48.768;18.608;2022-08-25T08:26:27;98462.28;;;39.30
11926;BMP180;6022;48.768;18.608;2022-08-25T08:29:17;98468.28;;;39.07
11926;BMP180;6022;48.768;18.608;2022-08-25T08:31:48;98474.13;;;39.98
11926;BMP180;6022;48.768;18.608;2022-08-25T08:34:16;98471.59;;;41.13
11926;BMP180;6022;48.768;18.608;2022-08-25T08:36:46;98483.72;;;40.87
11926;BMP180;6022;48.768;18.608;2022-08-25T08:39:13;98470.78;;;40.57
11926;BMP180;6022;48.768;18.608;2022-08-25T08:51:11;98474.66;;;42.41
11926;BMP180;6022;48.768;18.608;2022-08-25T08:54:00;98471.28;;;41.33
11926;BMP180;6022;48.768;18.608;2022-08-25T08:56:37;98465.78;;;41.42
11926;BMP180;6022;48.768;18.608;2022-08-25T08:59:24;98460.16;;;41.75
11926;BMP180;6022;48.768;18.608;2022-08-25T09:02:02;98462.47;;;40.64
11926;BMP180;6022;48.768;18.608;2022-08-25T09:04:46;98463.94;;;39.82
11926;BMP180;6022;48.768;18.608;2022-08-25T09:07:53;98462.53;;;39.89
11926;BMP180;6022;48.768;18.608;2022-08-25T09:10:38;98456.31;;;41.81
11926;BMP180;6022;48.768;18.608;2022-08-25T09:13:15;98457.44;;;42.47
11926;BMP180;6022;48.768;18.608;2022-08-25T09:16:15;98456.84;;;42.23
11926;BMP180;6022;48.768;18.608;2022-08-25T09:25:44;98442.41;;;41.71
11926;BMP180;6022;48.768;18.608;2022-08-25T09:28:44;98440.94;;;41.92
11926;BMP180;6022;48.768;18.608;2022-08-25T09:31:23;98445.16;;;43.16
11926;BMP180;6022;48.768;18.608;2022-08-25T09:34:00;98439.47;;;43.09
11926;BMP180;6022;48.768;18.608;2022-08-25T09:36:30;98434.69;;;42.98
11926;BMP180;6022;48.768;18.608;2022-08-25T09:39:06;98437.28;;;43.11
11926;BMP180;6022;48.768;18.608;2022-08-25T09:41:50;98433.69;;;42.32
11926;BMP180;6022;48.768;18.608;2022-08-25T09:50:00;98431.06;;;42.46
11926;BMP180;6022;48.768;18.608;2022-08-25T09:52:38;98432.72;;;41.88
11926;BMP180;6022;48.768;18.608;2022-08-25T10:00:31;98425.38;;;41.54
11926;BMP180;6022;48.768;18.608;2022-08-25T10:05:55;98422.16;;;41.70
11926;BMP180;6022;48.768;18.608;2022-08-25T10:16:46;98414.44;;;41.24
11926;BMP180;6022;48.768;18.608;2022-08-25T10:22:26;98402.38;;;40.76
11926;BMP180;6022;48.768;18.608;2022-08-25T10:25:09;98392.44;;;40.82
11926;BMP180;6022;48.768;18.608;2022-08-25T10:28:10;98392.50;;;40.77
11926;BMP180;6022;48.768;18.608;2022-08-25T10:31:10;98389.97;;;40.90
11926;BMP180;6022;48.768;18.608;2022-08-25T10:34:49;98392.25;;;40.60
11926;BMP180;6022;48.768;18.608;2022-08-25T10:36:57;98384.97;;;40.06
11926;BMP180;6022;48.768;18.608;2022-08-25T10:39:45;98383.81;;;40.35
11926;BMP180;6022;48.768;18.608;2022-08-25T10:45:26;98380.19;;;40.26
11926;BMP180;6022;48.768;18.608;2022-08-25T10:54:23;98367.34;;;40.33
11926;BMP180;6022;48.768;18.608;2022-08-25T10:57:20;98373.28;;;39.83
11926;BMP180;6022;48.768;18.608;2022-08-25T11:00:09;98365.88;;;40.04
11926;BMP180;6022;48.768;18.608;2022-08-25T11:08:20;98362.72;;;39.78
11926;BMP180;6022;48.768;18.608;2022-08-25T11:11:09;98361.94;;;39.78
11926;BMP180;6022;48.768;18.608;2022-08-25T11:13:47;98353.75;;;40.16
11926;BMP180;6022;48.768;18.608;2022-08-25T11:19:28;98355.84;;;40.19
11926;BMP180;6022;48.768;18.608;2022-08-25T11:22:16;98356.34;;;39.98
11926;BMP180;6022;48.768;18.608;2022-08-25T11:27:35;98353.03;;;39.87
11926;BMP180;6022;48.768;18.608;2022-08-25T11:30:12;98344.38;;;40.00
11926;BMP180;6022;48.768;18.608;2022-08-25T11:32:47;98346.34;;;39.90
11926;BMP180;6022;48.768;18.608;2022-08-25T11:35:26;98338.66;;;39.42
11926;BMP180;6022;48.768;18.608;2022-08-25T11:40:57;98333.03;;;39.72
11926;BMP180;6022;48.768;18.608;2022-08-25T12:04:38;98315.41;;;38.68
11926;BMP180;6022;48.768;18.608;2022-08-25T12:07:56;98310.56;;;38.80
11926;BMP180;6022;48.768;18.608;2022-08-25T12:11:02;98307.63;;;38.81
11926;BMP180;6022;48.768;18.608;2022-08-25T12:13:49;98310.00;;;38.78
11926;BMP180;6022;48.768;18.608;2022-08-25T12:16:40;98316.06;;;38.50
11926;BMP180;6022;48.768;18.608;2022-08-25T12:30:39;98299.94;;;38.04
11926;BMP180;6022;48.768;18.608;2022-08-25T12:36:33;98287.59;;;37.70
11926;BMP180;6022;48.768;18.608;2022-08-25T12:39:20;98290.34;;;37.50
11926;BMP180;6022;48.768;18.608;2022-08-25T12:42:00;98287.94;;;37.53
11926;BMP180;6022;48.768;18.608;2022-08-25T12:44:45;98291.66;;;37.42
11926;BMP180;6022;48.768;18.608;2022-08-25T12:49:50;98285.13;;;37.10
11926;BMP180;6022;48.768;18.608;2022-08-25T12:52:22;98288.03;;;37.14
11926;BMP180;6022;48.768;18.608;2022-08-25T12:55:02;98280.88;;;37.19
11926;BMP180;6022;48.768;18.608;2022-08-25T12:57:53;98286.19;;;37.19
11926;BMP180;6022;48.768;18.608;2022-08-25T13:00:36;98289.34;;;37.11
11926;BMP180;6022;48.768;18.608;2022-08-25T13:10:03;98271.34;;;36.25
11926;BMP180;6022;48.768;18.608;2022-08-25T13:15:34;98267.81;;;35.85
11926;BMP180;6022;48.768;18.608;2022-08-25T13:18:29;98265.59;;;35.67
11926;BMP180;6022;48.768;18.608;2022-08-25T13:23:40;98269.19;;;35.41
11926;BMP180;6022;48.768;18.608;2022-08-25T13:26:20;98262.06;;;35.47
11926;BMP180;6022;48.768;18.608;2022-08-25T13:31:37;98259.81;;;35.24
11926;BMP180;6022;48.768;18.608;2022-08-25T13:34:19;98260.28;;;35.11
11926;BMP180;6022;48.768;18.608;2022-08-25T13:36:48;98256.31;;;35.09
11926;BMP180;6022;48.768;18.608;2022-08-25T13:39:35;98253.59;;;34.94
11926;BMP180;6022;48.768;18.608;2022-08-25T13:42:22;98255.69;;;34.92
11926;BMP180;6022;48.768;18.608;2022-08-25T13:44:55;98251.94;;;34.83
11926;BMP180;6022;48.768;18.608;2022-08-25T13:47:40;98249.75;;;34.75
11926;BMP180;6022;48.768;18.608;2022-08-25T13:53:20;98245.72;;;34.68
11926;BMP180;6022;48.768;18.608;2022-08-25T13:55:59;98244.78;;;34.47
11926;BMP180;6022;48.768;18.608;2022-08-25T13:58:30;98240.34;;;34.27
11926;BMP180;6022;48.768;18.608;2022-08-25T14:04:22;98238.53;;;34.01
11926;BMP180;6022;48.768;18.608;2022-08-25T14:10:05;98233.41;;;33.90
11926;BMP180;6022;48.768;18.608;2022-08-25T14:12:40;98230.50;;;33.86
11926;BMP180;6022;48.768;18.608;2022-08-25T14:17:57;98228.63;;;33.65
11926;BMP180;6022;48.768;18.608;2022-08-25T14:20:29;98225.03;;;33.71
11926;BMP180;6022;48.768;18.608;2022-08-25T14:23:05;98231.78;;;33.62
11926;BMP180;6022;48.768;18.608;2022-08-25T14:25:36;98226.34;;;33.48
11926;BMP180;6022;48.768;18.608;2022-08-25T14:28:16;98223.16;;;33.46
11926;BMP180;6022;48.768;18.608;2022-08-25T14:30:52;98223.69;;;33.48
11926;BMP180;6022;48.768;18.608;2022-08-25T14:33:28;98229.03;;;33.53
11926;BMP180;6022;48.768;18.608;2022-08-25T14:35:58;98222.59;;;33.44
11926;BMP180;6022;48.768;18.608;2022-08-25T14:38:26;98212.63;;;33.24
11926;BMP180;6022;48.768;18.608;2022-08-25T14:40:54;98213.84;;;33.17
11926;BMP180;6022;48.768;18.608;2022-08-25T14:43:25;98210.22;;;33.23
11926;BMP180;6022;48.768;18.608;2022-08-25T14:46:02;98205.00;;;33.07
11926;BMP180;6022;48.768;18.608;2022-08-25T14:48:42;98216.09;;;32.92
11926;BMP180;6022;48.768;18.608;2022-08-25T14:51:15;98208.28;;;32.97
11926;BMP180;6022;48.768;18.608;2022-08-25T14:53:43;98215.63;;;32.95
11926;BMP180;6022;48.768;18.608;2022-08-25T14:56:11;98212.63;;;32.87
11926;BMP180;6022;48.768;18.608;2022-08-25T14:58:44;98212.75;;;32.80
11926;BMP180;6022;48.768;18.608;2022-08-25T15:01:20;98213.31;;;32.82
11926;BMP180;6022;48.768;18.608;2022-08-25T15:04:18;98217.88;;;32.71
11926;BMP180;6022;48.768;18.608;2022-08-25T15:06:50;98222.16;;;32.60
11926;BMP180;6022;48.768;18.608;2022-08-25T15:09:21;98218.19;;;32.58
11926;BMP180;6022;48.768;18.608;2022-08-25T15:11:53;98217.56;;;32.51
11926;BMP180;6022;48.768;18.608;2022-08-25T15:14:24;98214.06;;;32.45
11926;BMP180;6022;48.768;18.608;2022-08-25T15:16:56;98211.28;;;32.36
11926;BMP180;6022;48.768;18.608;2022-08-25T15:19:25;98205.78;;;32.37
11926;BMP180;6022;48.768;18.608;2022-08-25T15:21:53;98212.75;;;32.32
11926;BMP180;6022;48.768;18.608;2022-08-25T15:24:26;98212.84;;;32.20
11926;BMP180;6022;48.768;18.608;2022-08-25T15:27:02;98207.03;;;32.18
11926;BMP180;6022;48.768;18.608;2022-08-25T15:29:33;98204.78;;;32.10
11926;BMP180;6022;48.768;18.608;2022-08-25T15:32:06;98211.06;;;32.09
11926;BMP180;6022;48.768;18.608;2022-08-25T15:34:34;98202.53;;;32.02
11926;BMP180;6022;48.768;18.608;2022-08-25T15:37:14;98210.19;;;32.04
11926;BMP180;6022;48.768;18.608;2022-08-25T15:39:44;98211.91;;;31.99
11926;BMP180;6022;48.768;18.608;2022-08-25T15:42:13;98212.47;;;32.00
11926;BMP180;6022;48.768;18.608;2022-08-25T15:44:43;98207.16;;;31.96
11926;BMP180;6022;48.768;18.608;2022-08-25T15:47:21;98202.63;;;31.80
11926;BMP180;6022;48.768;18.608;2022-08-25T15:50:01;98197.66;;;31.67
11926;BMP180;6022;48.768;18.608;2022-08-25T15:52:28;98201.69;;;31.58
11926;BMP180;6022;48.768;18.608;2022-08-25T15:55:15;98197.28;;;31.47
11926;BMP180;6022;48.768;18.608;2022-08-25T15:57:45;98190.03;;;31.26
11926;BMP180;6022;48.768;18.608;2022-08-25T16:00:18;98194.13;;;31.23
11926;BMP180;6022;48.768;18.608;2022-08-25T16:02:50;98198.91;;;31.25
11926;BMP180;6022;48.768;18.608;2022-08-25T16:05:19;98191.53;;;31.11
11926;BMP180;6022;48.768;18.608;2022-08-25T16:07:52;98203.75;;;31.06
11926;BMP180;6022;48.768;18.608;2022-08-25T16:10:22;98196.47;;;30.96
11926;BMP180;6022;48.768;18.608;2022-08-25T16:12:54;98187.34;;;30.99
11926;BMP180;6022;48.768;18.608;2022-08-25T16:15:23;98207.84;;;31.02
11926;BMP180;6022;48.768;18.608;2022-08-25T16:17:56;98196.56;;;31.01
11926;BMP180;6022;48.768;18.608;2022-08-25T16:20:26;98202.50;;;30.97
11926;BMP180;6022;48.768;18.608;2022-08-25T16:22:54;98207.41;;;30.93
11926;BMP180;6022;48.768;18.608;2022-08-25T16:25:22;98210.59;;;30.84
11926;BMP180;6022;48.768;18.608;2022-08-25T16:27:49;98211.47;;;30.78
11926;BMP180;6022;48.768;18.608;2022-08-25T16:30:18;98212.41;;;30.72
11926;BMP180;6022;48.768;18.608;2022-08-25T16:32:46;98211.59;;;30.60
11926;BMP180;6022;48.768;18.608;2022-08-25T16:35:14;98204.06;;;30.52
11926;BMP180;6022;48.768;18.608;2022-08-25T16:37:47;98203.16;;;30.47
11926;BMP180;6022;48.768;18.608;2022-08-25T16:40:15;98192.78;;;30.41
11926;BMP180;6022;48.768;18.608;2022-08-25T16:42:46;98199.38;;;30.32
11926;BMP180;6022;48.768;18.608;2022-08-25T16:45:15;98193.88;;;30.22
11926;BMP180;6022;48.768;18.608;2022-08-25T16:47:46;98194.22;;;30.14
11926;BMP180;6022;48.768;18.608;2022-08-25T16:50:15;98194.66;;;30.11
11926;BMP180;6022;48.768;18.608;2022-08-25T16:52:44;98202.97;;;30.08
11926;BMP180;6022;48.768;18.608;2022-08-25T16:55:34;98201.34;;;30.07
11926;BMP180;6022;48.768;18.608;2022-08-25T16:58:05;98203.03;;;30.02